Time;durP1;ratioP1;P1;durP2;ratioP2;P2;SDS_P1;SDS_P2;PMS_P1;PMS_P2;Temp;Humidity;BMP_temperature;BMP_pressure;BME280_temperature;BME280_humidity;BME280_pressure;Samples;Min_cycle;Max_cycle;Signal;HPM_P1;HPM_P2
2022/06/05 00:01:17;;;;;;;47.40;12.32;;;;;;;;;;5010409;28;20037;-76
2022/06/05 00:03:43;;;;;;;36.42;10.77;;;;;;;;;;5010185;28;20022;-76
2022/06/05 00:06:20;;;;;;;38.38;12.05;;;;;;;;;;5007922;28;20484;-76
2022/06/05 00:08:56;;;;;;;41.05;11.68;;;;;;;;;;5008646;28;20034;-76
2022/06/05 00:11:23;;;;;;;44.75;12.68;;;;;;;;;;5008211;28;20105;-76
2022/06/05 00:13:51;;;;;;;34.72;12.70;;;;;;;;;;5007518;28;20105;-76
2022/06/05 00:16:20;;;;;;;47.90;12.63;;;;;;;;;;5009494;28;20091;-76
2022/06/05 00:18:46;;;;;;;42.85;13.15;;;;;;;;;;5010555;28;20133;-76
2022/06/05 00:21:13;;;;;;;34.50;11.95;;;;;;;;;;5008225;28;20057;-76
2022/06/05 00:23:39;;;;;;;39.67;12.73;;;;;;;;;;5014095;28;20503;-76
2022/06/05 00:26:23;;;;;;;41.35;12.52;;;;;;;;;;5011982;28;20628;-76
2022/06/05 00:28:59;;;;;;;46.08;12.15;;;;;;;;;;5013232;28;20033;-76
2022/06/05 00:31:38;;;;;;;47.25;13.48;;;;;;;;;;5011508;28;20036;-76
2022/06/05 00:34:04;;;;;;;40.35;12.02;;;;;;;;;;5012808;28;20072;-76
2022/06/05 00:36:39;;;;;;;42.00;12.75;;;;;;;;;;5015700;28;20061;-76
2022/06/05 00:39:18;;;;;;;40.90;12.85;;;;;;;;;;5017059;28;20025;-76
2022/06/05 00:41:58;;;;;;;35.72;12.88;;;;;;;;;;5015835;28;20454;-76
2022/06/05 00:44:26;;;;;;;53.85;13.50;;;;;;;;;;5016927;28;20130;-76
2022/06/05 00:46:53;;;;;;;42.22;12.75;;;;;;;;;;5014459;28;20057;-76
2022/06/05 00:49:20;;;;;;;46.95;13.27;;;;;;;;;;5015271;28;20117;-76
2022/06/05 00:51:46;;;;;;;47.85;12.65;;;;;;;;;;5015188;28;20022;-76
2022/06/05 00:54:12;;;;;;;34.47;12.02;;;;;;;;;;5016871;28;20030;-76
2022/06/05 00:56:39;;;;;;;45.35;12.13;;;;;;;;;;5016364;28;20038;-76
2022/06/05 00:59:05;;;;;;;41.92;13.82;;;;;;;;;;5015561;28;20445;-76
2022/06/05 01:01:32;;;;;;;40.47;12.35;;;;;;;;;;5017160;28;20030;-76
2022/06/05 01:04:01;;;;;;;37.03;13.85;;;;;;;;;;5014588;28;20021;-76
2022/06/05 01:06:28;;;;;;;40.53;13.48;;;;;;;;;;5015092;28;20041;-75
2022/06/05 01:08:54;;;;;;;44.75;13.23;;;;;;;;;;5016185;28;20034;-76
2022/06/05 01:11:24;;;;;;;49.35;13.73;;;;;;;;;;5016477;28;20503;-76
2022/06/05 01:13:54;;;;;;;47.50;14.10;;;;;;;;;;5015275;28;20025;-76
2022/06/05 01:16:24;;;;;;;42.75;13.00;;;;;;;;;;5014314;28;20033;-75
2022/06/05 01:18:54;;;;;;;37.63;12.82;;;;;;;;;;5014582;28;20029;-76
2022/06/05 01:21:38;;;;;;;38.13;13.30;;;;;;;;;;5014864;28;20062;-76
2022/06/05 01:24:04;;;;;;;42.15;13.70;;;;;;;;;;5014609;28;20040;-75
2022/06/05 01:26:30;;;;;;;61.65;14.60;;;;;;;;;;5014564;28;20026;-76
2022/06/05 01:29:06;;;;;;;49.17;12.88;;;;;;;;;;5015050;28;20093;-76
2022/06/05 01:31:36;;;;;;;42.40;13.23;;;;;;;;;;5000648;28;20402;-76
2022/06/05 01:34:15;;;;;;;48.30;13.85;;;;;;;;;;5013792;28;20076;-76
2022/06/05 01:36:56;;;;;;;40.10;13.43;;;;;;;;;;5012676;28;20034;-76
2022/06/05 01:39:24;;;;;;;50.60;13.82;;;;;;;;;;5016236;28;20037;-76
2022/06/05 01:41:52;;;;;;;48.92;13.90;;;;;;;;;;5015076;28;20034;-76
2022/06/05 01:44:23;;;;;;;42.90;14.13;;;;;;;;;;5012739;28;20057;-76
2022/06/05 01:46:50;;;;;;;47.60;14.90;;;;;;;;;;5016278;28;20462;-76
2022/06/05 01:49:16;;;;;;;44.95;13.70;;;;;;;;;;5014594;28;20445;-76
2022/06/05 01:51:46;;;;;;;45.83;14.48;;;;;;;;;;5014905;28;20029;-76
2022/06/05 01:54:15;;;;;;;48.42;13.35;;;;;;;;;;5016050;28;20088;-76
2022/06/05 01:56:44;;;;;;;45.65;13.70;;;;;;;;;;5015181;28;20507;-76
2022/06/05 01:59:17;;;;;;;48.50;15.60;;;;;;;;;;5015871;28;20391;-76
2022/06/05 02:01:45;;;;;;;48.63;13.95;;;;;;;;;;5015674;28;20026;-75
2022/06/05 02:04:14;;;;;;;42.45;13.27;;;;;;;;;;5013482;28;20034;-76
2022/06/05 02:06:43;;;;;;;42.00;13.68;;;;;;;;;;5014870;28;20063;-76
2022/06/05 02:09:32;;;;;;;46.10;14.55;;;;;;;;;;5012961;28;20037;-75
2022/06/05 02:11:59;;;;;;;56.60;15.57;;;;;;;;;;5007428;28;20113;-75
2022/06/05 02:14:26;;;;;;;51.15;15.38;;;;;;;;;;5015465;28;20034;-76
2022/06/05 02:16:52;;;;;;;42.05;13.65;;;;;;;;;;5015163;28;20499;-76
2022/06/05 02:19:19;;;;;;;52.03;16.15;;;;;;;;;;5014130;28;20026;-76
2022/06/05 02:21:46;;;;;;;47.80;14.55;;;;;;;;;;5013764;28;20045;-76
2022/06/05 02:24:12;;;;;;;47.40;14.73;;;;;;;;;;5013376;28;20034;-76
2022/06/05 02:26:39;;;;;;;58.70;16.10;;;;;;;;;;5015273;28;20456;-76
2022/06/05 02:29:12;;;;;;;57.78;16.77;;;;;;;;;;5015167;28;20029;-76
2022/06/05 02:31:41;;;;;;;64.20;17.00;;;;;;;;;;5015206;28;20044;-75
2022/06/05 02:34:34;;;;;;;53.35;16.25;;;;;;;;;;5013193;28;20050;-76
2022/06/05 02:37:19;;;;;;;52.28;16.13;;;;;;;;;;5008106;28;20585;-76
2022/06/05 02:39:45;;;;;;;56.25;16.88;;;;;;;;;;5011555;28;20069;-76
2022/06/05 02:42:30;;;;;;;55.22;17.02;;;;;;;;;;5013610;28;20026;-75
2022/06/05 02:45:02;;;;;;;58.47;16.52;;;;;;;;;;5014809;28;20124;-76
2022/06/05 02:47:46;;;;;;;51.65;16.25;;;;;;;;;;5014919;28;20069;-76
2022/06/05 02:50:21;;;;;;;63.55;17.92;;;;;;;;;;5014890;28;20446;-76
2022/06/05 02:52:49;;;;;;;65.38;18.55;;;;;;;;;;5014559;28;20443;-76
2022/06/05 02:55:17;;;;;;;59.80;18.05;;;;;;;;;;5012720;28;20041;-75
2022/06/05 02:57:44;;;;;;;60.58;17.88;;;;;;;;;;5012530;28;20065;-76
2022/06/05 03:00:12;;;;;;;59.33;18.63;;;;;;;;;;5014845;28;20021;-75
2022/06/05 03:05:23;;;;;;;61.05;18.50;;;;;;;;;;5014485;28;20215;-76
2022/06/05 03:07:49;;;;;;;56.85;18.60;;;;;;;;;;5014409;28;20034;-76
2022/06/05 03:10:16;;;;;;;57.67;18.00;;;;;;;;;;5013179;28;20036;-76
2022/06/05 03:12:42;;;;;;;53.88;18.02;;;;;;;;;;5013353;28;20483;-76
2022/06/05 03:15:08;;;;;;;62.55;18.40;;;;;;;;;;5014151;28;20026;-76
2022/06/05 03:17:36;;;;;;;52.67;18.92;;;;;;;;;;5014233;28;20037;-76
2022/06/05 03:20:02;;;;;;;56.35;18.67;;;;;;;;;;5014282;28;20046;-76
2022/06/05 03:22:28;;;;;;;62.63;18.13;;;;;;;;;;5012673;28;20045;-76
2022/06/05 03:24:54;;;;;;;52.35;18.83;;;;;;;;;;5012247;28;20033;-75
2022/06/05 03:27:21;;;;;;;60.33;19.25;;;;;;;;;;5014094;28;20037;-76
2022/06/05 03:29:47;;;;;;;60.95;20.35;;;;;;;;;;5014575;28;20033;-76
2022/06/05 03:32:13;;;;;;;65.55;19.25;;;;;;;;;;5013829;28;20026;-75
2022/06/05 03:34:39;;;;;;;55.45;18.50;;;;;;;;;;5014083;28;20029;-76
2022/06/05 03:37:05;;;;;;;60.30;19.50;;;;;;;;;;5011746;28;20045;-76
2022/06/05 03:39:34;;;;;;;64.90;18.08;;;;;;;;;;5014266;28;20026;-76
2022/06/05 03:42:00;;;;;;;61.22;17.35;;;;;;;;;;5012644;28;20037;-76
2022/06/05 03:44:27;;;;;;;52.92;17.02;;;;;;;;;;5013883;28;20053;-76
2022/06/05 03:46:53;;;;;;;60.65;18.92;;;;;;;;;;5014074;28;20423;-76
2022/06/05 03:49:19;;;;;;;59.75;17.98;;;;;;;;;;5012418;28;20030;-76
2022/06/05 03:51:46;;;;;;;61.55;18.90;;;;;;;;;;5011696;28;20376;-76
2022/06/05 03:54:12;;;;;;;65.63;17.02;;;;;;;;;;5012502;28;20084;-76
2022/06/05 03:56:39;;;;;;;53.83;18.13;;;;;;;;;;5012282;28;20045;-76
2022/06/05 03:59:05;;;;;;;50.28;16.65;;;;;;;;;;5006637;28;20023;-76
2022/06/05 04:01:31;;;;;;;59.60;17.42;;;;;;;;;;5013930;28;20116;-76
2022/06/05 04:03:58;;;;;;;56.20;17.38;;;;;;;;;;5011678;28;20502;-76
2022/06/05 04:06:29;;;;;;;50.00;17.17;;;;;;;;;;5015263;28;20411;-76
2022/06/05 04:08:56;;;;;;;57.15;17.52;;;;;;;;;;5016431;28;20483;-76
2022/06/05 04:11:23;;;;;;;46.72;16.65;;;;;;;;;;5017586;28;20517;-76
2022/06/05 04:13:49;;;;;;;53.15;17.30;;;;;;;;;;5017652;28;20108;-76
2022/06/05 04:16:20;;;;;;;48.20;15.57;;;;;;;;;;5014737;28;20099;-76
2022/06/05 04:18:46;;;;;;;58.92;19.08;;;;;;;;;;5016267;28;20534;-76
2022/06/05 04:21:16;;;;;;;57.70;16.90;;;;;;;;;;5015764;28;20049;-76
2022/06/05 04:23:43;;;;;;;62.47;16.63;;;;;;;;;;5017214;28;20034;-76
2022/06/05 04:26:10;;;;;;;53.60;17.10;;;;;;;;;;5017378;28;20036;-75
2022/06/05 04:28:36;;;;;;;56.75;16.10;;;;;;;;;;5017923;28;20018;-75
2022/06/05 04:31:03;;;;;;;51.83;16.80;;;;;;;;;;5015378;28;20034;-76
2022/06/05 04:33:31;;;;;;;50.05;15.95;;;;;;;;;;5016489;28;20101;-76
2022/06/05 04:35:57;;;;;;;47.25;15.65;;;;;;;;;;5016396;28;20080;-76
2022/06/05 04:38:24;;;;;;;58.50;17.20;;;;;;;;;;5015839;28;20520;-76
2022/06/05 04:40:50;;;;;;;57.58;16.35;;;;;;;;;;5015894;28;20076;-76
2022/06/05 04:43:16;;;;;;;57.78;16.80;;;;;;;;;;5014092;28;20034;-75
2022/06/05 04:45:43;;;;;;;48.10;17.52;;;;;;;;;;5015272;28;20046;-76
2022/06/05 04:48:10;;;;;;;51.83;17.63;;;;;;;;;;5015457;28;20037;-76
2022/06/05 04:50:36;;;;;;;52.15;16.35;;;;;;;;;;5015162;28;20030;-76
2022/06/05 04:53:03;;;;;;;45.53;15.90;;;;;;;;;;5017453;28;20044;-76
2022/06/05 04:55:29;;;;;;;54.60;16.80;;;;;;;;;;5015483;28;20037;-76
2022/06/05 04:57:55;;;;;;;60.95;16.35;;;;;;;;;;5014898;28;20026;-76
2022/06/05 05:00:23;;;;;;;63.25;16.35;;;;;;;;;;5015522;28;20030;-76
2022/06/05 05:02:49;;;;;;;52.65;16.98;;;;;;;;;;5016495;28;20030;-76
2022/06/05 05:05:15;;;;;;;52.05;17.05;;;;;;;;;;5016205;28;20038;-76
2022/06/05 05:07:41;;;;;;;58.65;17.38;;;;;;;;;;5014527;28;20051;-76
2022/06/05 05:10:08;;;;;;;45.83;16.08;;;;;;;;;;5014455;28;20399;-76
2022/06/05 05:12:34;;;;;;;53.67;15.98;;;;;;;;;;5016626;28;20021;-76
2022/06/05 05:15:00;;;;;;;49.78;17.38;;;;;;;;;;5016445;28;20034;-76
2022/06/05 05:17:26;;;;;;;51.50;18.85;;;;;;;;;;5015460;28;20058;-76
2022/06/05 05:19:52;;;;;;;52.00;16.60;;;;;;;;;;5014433;28;20063;-76
2022/06/05 05:22:19;;;;;;;55.28;17.42;;;;;;;;;;5015316;28;20502;-76
2022/06/05 05:24:45;;;;;;;55.58;18.15;;;;;;;;;;5013981;28;20026;-76
2022/06/05 05:27:11;;;;;;;61.58;18.20;;;;;;;;;;5016018;28;20121;-76
2022/06/05 05:29:39;;;;;;;56.28;18.13;;;;;;;;;;5016324;28;20037;-76
2022/06/05 05:32:06;;;;;;;49.08;16.48;;;;;;;;;;5015889;28;20117;-76
2022/06/05 05:34:32;;;;;;;52.42;17.45;;;;;;;;;;5016447;28;20033;-76
2022/06/05 05:36:58;;;;;;;57.28;17.00;;;;;;;;;;5013766;28;20041;-76
2022/06/05 05:42:09;;;;;;;46.40;16.08;;;;;;;;;;5016503;28;20056;-76
2022/06/05 05:44:38;;;;;;;52.00;16.92;;;;;;;;;;5014470;28;20034;-76
2022/06/05 05:47:06;;;;;;;61.25;18.52;;;;;;;;;;5014326;28;20471;-76
2022/06/05 05:49:32;;;;;;;53.42;16.00;;;;;;;;;;5016235;28;20033;-76
2022/06/05 05:51:58;;;;;;;59.47;17.65;;;;;;;;;;5013422;28;20026;-76
2022/06/05 05:54:24;;;;;;;50.80;16.20;;;;;;;;;;5016000;28;20117;-76
2022/06/05 05:56:51;;;;;;;57.15;17.23;;;;;;;;;;5015545;28;20048;-76
2022/06/05 05:59:18;;;;;;;86.72;19.08;;;;;;;;;;5015815;28;20017;-73
2022/06/05 06:01:45;;;;;;;49.78;19.23;;;;;;;;;;5013759;28;20087;-73
2022/06/05 06:04:11;;;;;;;56.22;19.70;;;;;;;;;;5014710;28;20030;-78
2022/06/05 06:06:40;;;;;;;53.47;18.02;;;;;;;;;;5011317;28;20037;-78
2022/06/05 06:09:06;;;;;;;80.57;20.20;;;;;;;;;;5015593;28;20033;-76
2022/06/05 06:11:32;;;;;;;59.42;19.73;;;;;;;;;;5015672;28;20521;-77
2022/06/05 06:13:59;;;;;;;63.30;21.85;;;;;;;;;;5014190;28;20073;-77
2022/06/05 06:16:26;;;;;;;55.63;20.45;;;;;;;;;;5013765;28;20478;-77
2022/06/05 06:18:53;;;;;;;55.95;20.60;;;;;;;;;;5012633;28;20025;-78
2022/06/05 06:21:19;;;;;;;59.63;21.63;;;;;;;;;;5013038;28;20050;-79
2022/06/05 06:23:46;;;;;;;69.60;21.98;;;;;;;;;;5015361;28;20025;-80
2022/06/05 06:26:12;;;;;;;49.70;20.45;;;;;;;;;;5015304;28;20025;-80
2022/06/05 06:28:38;;;;;;;63.63;19.52;;;;;;;;;;5015392;28;20029;-79
2022/06/05 06:31:06;;;;;;;54.78;21.25;;;;;;;;;;5012647;28;20021;-79
2022/06/05 06:33:32;;;;;;;60.40;19.92;;;;;;;;;;5014581;28;20029;-82
2022/06/05 06:36:00;;;;;;;51.85;19.30;;;;;;;;;;5015022;28;20423;-80
2022/06/05 06:38:27;;;;;;;57.42;20.13;;;;;;;;;;5014960;28;20109;-81
2022/06/05 06:41:03;;;;;;;59.45;20.10;;;;;;;;;;5015644;28;20022;-81
2022/06/05 06:43:29;;;;;;;56.30;20.50;;;;;;;;;;5004087;28;20025;-78
2022/06/05 06:45:56;;;;;;;53.20;19.55;;;;;;;;;;5012898;28;20021;-80
2022/06/05 06:48:22;;;;;;;55.60;19.80;;;;;;;;;;5014745;28;20029;-83
2022/06/05 06:50:48;;;;;;;58.78;20.60;;;;;;;;;;5014658;28;20084;-77
2022/06/05 06:53:14;;;;;;;57.60;20.55;;;;;;;;;;5014923;28;20030;-86
2022/06/05 06:55:40;;;;;;;52.63;18.95;;;;;;;;;;5014751;28;20038;-84
2022/06/05 06:58:06;;;;;;;47.88;18.33;;;;;;;;;;5012651;28;20061;-87
2022/06/05 07:00:32;;;;;;;64.97;18.85;;;;;;;;;;5014425;28;20073;-80
2022/06/05 07:02:59;;;;;;;55.00;18.50;;;;;;;;;;5013348;28;20526;-80
2022/06/05 07:05:25;;;;;;;58.08;18.33;;;;;;;;;;5014293;28;20041;-83
2022/06/05 07:07:52;;;;;;;50.60;18.25;;;;;;;;;;5014909;28;20402;-85
2022/06/05 07:10:18;;;;;;;48.22;18.23;;;;;;;;;;5013160;28;20045;-82
2022/06/05 07:12:44;;;;;;;60.63;17.83;;;;;;;;;;5014097;28;20025;-83
2022/06/05 07:15:10;;;;;;;44.05;17.50;;;;;;;;;;5013891;28;20040;-77
2022/06/05 07:17:36;;;;;;;52.17;17.75;;;;;;;;;;5014114;28;20563;-84
2022/06/05 07:20:03;;;;;;;58.30;18.42;;;;;;;;;;5014339;28;20038;-77
2022/06/05 07:22:29;;;;;;;50.72;17.25;;;;;;;;;;5014997;28;20034;-91
2022/06/05 07:24:56;;;;;;;49.58;17.75;;;;;;;;;;5012285;28;20395;-79
2022/06/05 07:27:22;;;;;;;48.08;17.42;;;;;;;;;;5012734;28;20033;-81
2022/06/05 07:29:48;;;;;;;46.95;18.92;;;;;;;;;;5012739;28;20034;-85
2022/06/05 07:32:14;;;;;;;44.00;17.23;;;;;;;;;;5013925;28;20030;-78
2022/06/05 07:34:40;;;;;;;40.13;18.00;;;;;;;;;;5012963;28;20025;-81
2022/06/05 07:37:06;;;;;;;48.83;17.38;;;;;;;;;;5012065;28;20034;-77
2022/06/05 07:39:32;;;;;;;51.53;19.08;;;;;;;;;;5012478;28;20030;-86
2022/06/05 07:41:59;;;;;;;51.13;18.67;;;;;;;;;;5013650;28;20030;-83
2022/06/05 07:44:28;;;;;;;54.90;19.60;;;;;;;;;;5012287;28;20034;-78
2022/06/05 07:46:54;;;;;;;54.30;18.13;;;;;;;;;;5012814;28;20088;-81
2022/06/05 07:49:20;;;;;;;51.63;18.33;;;;;;;;;;5012296;28;20030;-84
2022/06/05 07:54:34;;;;;;;53.28;19.17;;;;;;;;;;5013233;28;20060;-79
2022/06/05 07:57:13;;;;;;;47.10;17.35;;;;;;;;;;5013463;28;20044;-81
2022/06/05 07:59:43;;;;;;;47.42;17.05;;;;;;;;;;5014043;28;20026;-76
2022/06/05 08:02:12;;;;;;;45.88;18.77;;;;;;;;;;5012725;28;20038;-80
2022/06/05 08:04:39;;;;;;;48.95;17.38;;;;;;;;;;5012855;28;20028;-81
2022/06/05 08:07:07;;;;;;;48.75;17.27;;;;;;;;;;5011707;28;20033;-84
2022/06/05 08:09:34;;;;;;;38.92;16.75;;;;;;;;;;5012563;28;20092;-82
2022/06/05 08:12:01;;;;;;;55.53;18.88;;;;;;;;;;5014057;28;20045;-82
2022/06/05 08:14:30;;;;;;;46.45;17.23;;;;;;;;;;5012400;28;20025;-81
2022/06/05 08:16:56;;;;;;;48.20;18.02;;;;;;;;;;5012319;28;20046;-87
2022/06/05 08:19:23;;;;;;;45.70;16.98;;;;;;;;;;5012784;28;20044;-87
2022/06/05 08:21:51;;;;;;;38.85;16.25;;;;;;;;;;5011402;28;20050;-82
2022/06/05 08:24:18;;;;;;;47.50;16.38;;;;;;;;;;5011906;28;20022;-82
2022/06/05 08:26:44;;;;;;;42.35;17.20;;;;;;;;;;5011818;28;20576;-84
2022/06/05 08:29:10;;;;;;;42.38;16.10;;;;;;;;;;5011706;28;20029;-89
2022/06/05 08:31:37;;;;;;;44.15;16.00;;;;;;;;;;5006866;28;20057;-86
2022/06/05 08:34:03;;;;;;;41.30;17.30;;;;;;;;;;5006050;28;20025;-83
2022/06/05 08:36:30;;;;;;;51.08;16.63;;;;;;;;;;5013132;28;20049;-83
2022/06/05 08:42:00;;;;;;;43.63;15.45;;;;;;;;;;5013634;28;20088;-82
2022/06/05 08:44:55;;;;;;;45.60;15.60;;;;;;;;;;5010176;28;20022;-82
2022/06/05 08:47:25;;;;;;;43.50;15.45;;;;;;;;;;4950528;28;20051;-81
2022/06/05 08:49:54;;;;;;;45.78;16.55;;;;;;;;;;4953193;28;20027;-81
2022/06/05 08:52:29;;;;;;;47.35;17.23;;;;;;;;;;4937557;28;20042;-82
2022/06/05 08:55:21;;;;;;;39.03;14.38;;;;;;;;;;4950182;29;20028;-82
2022/06/05 08:57:53;;;;;;;46.40;16.17;;;;;;;;;;4949521;29;20051;-82
2022/06/05 09:00:41;;;;;;;44.13;14.20;;;;;;;;;;4956340;28;20440;-82
2022/06/05 09:03:13;;;;;;;40.83;14.85;;;;;;;;;;4954981;28;20053;-82
2022/06/05 09:05:48;;;;;;;41.63;15.40;;;;;;;;;;4956077;28;20087;-82
2022/06/05 09:08:16;;;;;;;42.00;13.38;;;;;;;;;;4956193;28;20038;-82
2022/06/05 09:10:46;;;;;;;35.30;12.63;;;;;;;;;;4954542;28;20122;-82
2022/06/05 09:13:12;;;;;;;36.90;12.43;;;;;;;;;;4954846;28;20027;-82
2022/06/05 09:15:45;;;;;;;43.15;13.70;;;;;;;;;;4947440;28;20110;-83
2022/06/05 09:18:17;;;;;;;38.47;13.10;;;;;;;;;;4956069;28;20385;-81
2022/06/05 09:20:45;;;;;;;36.47;12.68;;;;;;;;;;4956048;28;20061;-82
2022/06/05 09:23:20;;;;;;;33.13;11.95;;;;;;;;;;4972808;28;20046;-82
2022/06/05 09:25:51;;;;;;;37.40;13.30;;;;;;;;;;5015549;28;20025;-81
2022/06/05 09:28:40;;;;;;;43.33;15.57;;;;;;;;;;5014724;28;20026;-82
2022/06/05 09:31:20;;;;;;;40.45;15.05;;;;;;;;;;5006070;28;20104;-82
2022/06/05 09:33:46;;;;;;;36.35;14.02;;;;;;;;;;5012784;28;20037;-82
2022/06/05 09:36:15;;;;;;;30.90;12.75;;;;;;;;;;5016639;28;20475;-82
2022/06/05 09:38:55;;;;;;;40.17;13.70;;;;;;;;;;5014208;28;20041;-82
2022/06/05 09:41:39;;;;;;;40.50;14.13;;;;;;;;;;5015050;28;20060;-82
2022/06/05 09:44:31;;;;;;;37.97;11.15;;;;;;;;;;5015882;28;20026;-82
2022/06/05 09:46:59;;;;;;;27.05;10.98;;;;;;;;;;5013387;28;20041;-82
2022/06/05 09:49:35;;;;;;;29.05;10.45;;;;;;;;;;5014187;28;20039;-82
2022/06/05 09:52:09;;;;;;;30.88;10.55;;;;;;;;;;5010256;28;20121;-82
2022/06/05 09:54:38;;;;;;;33.38;10.52;;;;;;;;;;5015395;28;20030;-83
2022/06/05 10:00:00;;;;;;;24.58;9.73;;;;;;;;;;5014517;28;20442;-82
2022/06/05 10:02:27;;;;;;;27.73;9.75;;;;;;;;;;5020051;28;20551;-82
2022/06/05 10:04:53;;;;;;;27.30;8.80;;;;;;;;;;5015607;28;20482;-82
2022/06/05 10:07:29;;;;;;;24.35;9.85;;;;;;;;;;5012875;28;20029;-82
2022/06/05 10:09:56;;;;;;;29.38;9.88;;;;;;;;;;5009382;28;20398;-82
2022/06/05 10:12:48;;;;;;;31.02;9.55;;;;;;;;;;5014359;28;20033;-82
2022/06/05 10:15:21;;;;;;;28.65;10.73;;;;;;;;;;5013369;28;20042;-82
2022/06/05 10:17:53;;;;;;;38.70;11.88;;;;;;;;;;5015965;28;20470;-82
2022/06/05 10:20:23;;;;;;;34.35;10.82;;;;;;;;;;5014845;28;20057;-82
2022/06/05 10:23:08;;;;;;;30.08;10.18;;;;;;;;;;5014945;28;20032;-83
2022/06/05 10:25:37;;;;;;;32.15;10.35;;;;;;;;;;5012682;28;20038;-82
2022/06/05 10:28:03;;;;;;;26.00;9.18;;;;;;;;;;5012511;28;20041;-83
2022/06/05 10:30:40;;;;;;;35.67;10.82;;;;;;;;;;5015284;28;20038;-82
2022/06/05 10:33:06;;;;;;;29.23;9.60;;;;;;;;;;5015464;28;20034;-83
2022/06/05 10:35:49;;;;;;;24.88;10.15;;;;;;;;;;5014934;28;20029;-83
2022/06/05 10:38:34;;;;;;;36.92;11.10;;;;;;;;;;5013508;28;20025;-83
2022/06/05 10:41:06;;;;;;;24.83;9.18;;;;;;;;;;5013824;28;20034;-82
2022/06/05 10:43:33;;;;;;;30.95;9.48;;;;;;;;;;5000468;28;20025;-82
2022/06/05 10:46:01;;;;;;;30.88;9.88;;;;;;;;;;5012569;28;20025;-82
2022/06/05 10:48:36;;;;;;;30.13;9.90;;;;;;;;;;5013713;28;20025;-82
2022/06/05 10:51:02;;;;;;;34.38;10.77;;;;;;;;;;5012887;28;20041;-82
2022/06/05 10:53:41;;;;;;;34.30;9.63;;;;;;;;;;5013414;28;20414;-82
2022/06/05 10:56:07;;;;;;;26.48;8.65;;;;;;;;;;5014871;28;20498;-82
2022/06/05 10:58:33;;;;;;;26.45;8.00;;;;;;;;;;5014872;28;20117;-83
2022/06/05 11:01:03;;;;;;;26.77;8.00;;;;;;;;;;5012372;28;20080;-82
2022/06/05 11:03:29;;;;;;;27.58;8.25;;;;;;;;;;5013079;28;20029;-82
2022/06/05 11:06:14;;;;;;;28.92;8.52;;;;;;;;;;5014527;28;20032;-82
2022/06/05 11:09:00;;;;;;;27.52;8.85;;;;;;;;;;5014277;28;20030;-82
2022/06/05 11:15:13;;;;;;;29.77;7.93;;;;;;;;;;4953116;28;20118;-83
2022/06/05 11:17:45;;;;;;;25.63;7.60;;;;;;;;;;4952687;28;20054;-83
2022/06/05 11:20:21;;;;;;;27.55;8.05;;;;;;;;;;4935755;29;20053;-83
2022/06/05 11:22:57;;;;;;;25.17;7.15;;;;;;;;;;4954065;28;20030;-83
2022/06/05 11:25:23;;;;;;;20.17;7.28;;;;;;;;;;4952292;28;20058;-83
2022/06/05 11:27:49;;;;;;;20.08;7.25;;;;;;;;;;4952074;29;20039;-83
2022/06/05 11:30:18;;;;;;;15.20;6.60;;;;;;;;;;4952275;28;20055;-83
2022/06/05 11:33:05;;;;;;;16.35;5.85;;;;;;;;;;4953718;28;20074;-83
2022/06/05 11:35:34;;;;;;;15.68;6.10;;;;;;;;;;4953137;28;20054;-84
2022/06/05 11:38:19;;;;;;;14.45;6.07;;;;;;;;;;4953393;28;20130;-82
2022/06/05 11:40:51;;;;;;;19.63;6.40;;;;;;;;;;4940602;28;20035;-82
2022/06/05 11:43:23;;;;;;;15.15;5.47;;;;;;;;;;4952308;28;20050;-82
2022/06/05 11:46:00;;;;;;;14.27;5.43;;;;;;;;;;4952261;28;20047;-83
2022/06/05 11:48:38;;;;;;;11.95;5.85;;;;;;;;;;4953816;28;20091;-83
2022/06/05 11:51:17;;;;;;;12.60;5.78;;;;;;;;;;4960896;28;20523;-83
2022/06/05 11:54:00;;;;;;;9.40;5.60;;;;;;;;;;4974029;28;20515;-82
2022/06/05 11:56:46;;;;;;;11.32;5.57;;;;;;;;;;4974981;28;20062;-82
2022/06/05 11:59:31;;;;;;;14.27;5.60;;;;;;;;;;4974924;28;20117;-83
2022/06/05 12:02:00;;;;;;;11.88;5.28;;;;;;;;;;4974802;28;20034;-82
2022/06/05 12:04:32;;;;;;;10.57;5.20;;;;;;;;;;4974148;28;20778;-82
2022/06/05 12:06:59;;;;;;;7.20;4.72;;;;;;;;;;4969037;28;20035;-82
2022/06/05 12:09:28;;;;;;;12.23;4.40;;;;;;;;;;4974660;28;20081;-82
2022/06/05 12:12:03;;;;;;;8.82;4.57;;;;;;;;;;4974768;28;20164;-82
2022/06/05 12:14:33;;;;;;;9.43;4.25;;;;;;;;;;4974837;28;20110;-82
2022/06/05 12:17:18;;;;;;;8.52;4.05;;;;;;;;;;4974850;28;20043;-83
2022/06/05 12:19:44;;;;;;;9.68;4.22;;;;;;;;;;4965908;28;20032;-83
2022/06/05 12:22:16;;;;;;;11.40;4.18;;;;;;;;;;5011635;28;20113;-82
2022/06/05 12:24:45;;;;;;;7.75;4.35;;;;;;;;;;5009995;28;20049;-81
2022/06/05 12:27:13;;;;;;;8.60;4.20;;;;;;;;;;5015139;28;20483;-82
2022/06/05 12:29:44;;;;;;;13.05;4.93;;;;;;;;;;5017456;28;20026;-82
2022/06/05 12:32:20;;;;;;;8.93;4.53;;;;;;;;;;5017919;28;20026;-82
2022/06/05 12:34:51;;;;;;;9.27;3.75;;;;;;;;;;5017246;28;20025;-82
2022/06/05 12:37:21;;;;;;;9.02;4.55;;;;;;;;;;5015667;28;20048;-83
2022/06/05 12:39:49;;;;;;;6.85;3.92;;;;;;;;;;5016323;28;20018;-82
2022/06/05 12:42:27;;;;;;;7.57;4.20;;;;;;;;;;5017135;28;20411;-82
2022/06/05 12:45:01;;;;;;;9.77;4.40;;;;;;;;;;5016969;28;20026;-81
2022/06/05 12:47:33;;;;;;;9.80;4.60;;;;;;;;;;5016488;28;20044;-76
2022/06/05 12:50:19;;;;;;;12.32;4.15;;;;;;;;;;5015370;28;20076;-77
2022/06/05 12:52:50;;;;;;;8.02;3.45;;;;;;;;;;4958815;28;20554;-79
2022/06/05 12:55:19;;;;;;;8.85;3.35;;;;;;;;;;4973685;28;20054;-79
2022/06/05 12:57:45;;;;;;;5.35;3.05;;;;;;;;;;4974398;28;20059;-76
2022/06/05 13:00:29;;;;;;;6.45;3.17;;;;;;;;;;4974941;28;20029;-79
2022/06/05 13:03:00;;;;;;;7.93;3.20;;;;;;;;;;4974404;28;20038;-79
2022/06/05 13:05:36;;;;;;;6.93;3.08;;;;;;;;;;4975136;28;20448;-78
2022/06/05 13:08:12;;;;;;;8.48;3.00;;;;;;;;;;4973855;28;20182;-79
2022/06/05 13:10:38;;;;;;;7.35;2.75;;;;;;;;;;4975261;28;20053;-80
2022/06/05 13:13:13;;;;;;;7.93;2.88;;;;;;;;;;4973172;28;20031;-80
2022/06/05 13:15:46;;;;;;;4.82;2.50;;;;;;;;;;4974277;28;20042;-78
2022/06/05 13:18:32;;;;;;;8.93;2.97;;;;;;;;;;4973254;28;20027;-79
2022/06/05 13:20:58;;;;;;;4.65;2.35;;;;;;;;;;4975096;28;20698;-80
2022/06/05 13:23:30;;;;;;;10.40;2.78;;;;;;;;;;4972924;28;20051;-76
2022/06/05 13:26:16;;;;;;;6.32;2.42;;;;;;;;;;4974081;28;20035;-81
2022/06/05 13:28:49;;;;;;;5.53;2.33;;;;;;;;;;4878340;29;20617;-82
2022/06/05 13:31:34;;;;;;;8.18;2.97;;;;;;;;;;4914723;29;20044;-77
2022/06/05 13:34:08;;;;;;;5.78;2.70;;;;;;;;;;4912052;29;20047;-79
2022/06/05 13:36:44;;;;;;;7.82;3.13;;;;;;;;;;4915247;29;20095;-81
2022/06/05 13:39:12;;;;;;;5.28;2.80;;;;;;;;;;4913595;29;20036;-78
2022/06/05 13:41:43;;;;;;;6.38;2.72;;;;;;;;;;4914556;29;20083;-77
2022/06/05 13:44:15;;;;;;;10.02;2.83;;;;;;;;;;4914524;29;20051;-77
2022/06/05 13:46:51;;;;;;;7.28;2.80;;;;;;;;;;4914744;29;20071;-74
2022/06/05 13:49:20;;;;;;;8.20;2.75;;;;;;;;;;4914799;29;20024;-78
2022/06/05 13:51:56;;;;;;;10.80;2.63;;;;;;;;;;4915178;29;20080;-80
2022/06/05 13:54:33;;;;;;;9.82;2.78;;;;;;;;;;4914456;29;20470;-80
2022/06/05 13:57:03;;;;;;;10.25;3.17;;;;;;;;;;4914492;29;20187;-80
2022/06/05 13:59:46;;;;;;;8.80;3.13;;;;;;;;;;4913491;29;20034;-79
2022/06/05 14:02:21;;;;;;;7.75;3.08;;;;;;;;;;4914228;29;20115;-80
2022/06/05 14:05:06;;;;;;;7.97;2.85;;;;;;;;;;4923199;28;20119;-79
2022/06/05 14:07:35;;;;;;;9.43;2.08;;;;;;;;;;4999288;28;20034;-80
2022/06/05 14:10:06;;;;;;;6.20;2.47;;;;;;;;;;5013147;28;20092;-80
2022/06/05 14:12:33;;;;;;;7.32;1.80;;;;;;;;;;5015635;28;20105;-80
2022/06/05 14:15:12;;;;;;;6.22;2.00;;;;;;;;;;5015362;28;20033;-79
2022/06/05 14:17:43;;;;;;;9.48;2.25;;;;;;;;;;5015374;28;20037;-79
2022/06/05 14:20:09;;;;;;;4.50;2.03;;;;;;;;;;5005045;28;20049;-79
2022/06/05 14:22:41;;;;;;;5.65;1.73;;;;;;;;;;5014107;28;20077;-78
2022/06/05 14:25:08;;;;;;;4.72;2.33;;;;;;;;;;5013168;28;20495;-79
2022/06/05 14:27:35;;;;;;;7.78;1.83;;;;;;;;;;5015675;28;20037;-79
2022/06/05 14:30:04;;;;;;;4.85;1.88;;;;;;;;;;5013208;28;20037;-78
2022/06/05 14:32:34;;;;;;;8.38;2.72;;;;;;;;;;5013937;28;20057;-78
2022/06/05 14:35:09;;;;;;;5.43;1.77;;;;;;;;;;5013511;28;20446;-79
2022/06/05 14:37:38;;;;;;;5.70;1.75;;;;;;;;;;5003995;28;20041;-79
2022/06/05 14:40:06;;;;;;;4.43;1.90;;;;;;;;;;5012672;28;20022;-79
2022/06/05 14:42:38;;;;;;;5.68;1.80;;;;;;;;;;5015028;28;20018;-79
2022/06/05 14:45:07;;;;;;;6.13;2.00;;;;;;;;;;5013610;28;20038;-80
2022/06/05 14:47:56;;;;;;;8.68;1.70;;;;;;;;;;5007077;28;20037;-79
2022/06/05 14:50:25;;;;;;;4.78;1.63;;;;;;;;;;5007716;28;20034;-79
2022/06/05 14:53:21;;;;;;;5.57;1.75;;;;;;;;;;5014888;28;20046;-79
2022/06/05 14:58:40;;;;;;;3.85;1.80;;;;;;;;;;4957268;28;20049;-78
2022/06/05 15:01:13;;;;;;;4.63;1.75;;;;;;;;;;4971528;28;20471;-79
2022/06/05 15:03:39;;;;;;;5.95;2.03;;;;;;;;;;4972886;28;20026;-78